Time;durP1;ratioP1;P1;durP2;ratioP2;P2;SDS_P1;SDS_P2;PMS_P1;PMS_P2;Temp;Humidity;BMP_temperature;BMP_pressure;BME280_temperature;BME280_humidity;BME280_pressure;Samples;Min_cycle;Max_cycle;Signal;HPM_P1;HPM_P2
2023/07/29 00:01:41;;;;;;;2.72;1.30;;;;;;;;;;5096077;28;20084;-81
2023/07/29 00:04:08;;;;;;;1.52;1.20;;;;;;;;;;5095871;28;20040;-81
2023/07/29 00:06:34;;;;;;;1.80;1.30;;;;;;;;;;5077628;28;20036;-81
2023/07/29 00:08:59;;;;;;;2.25;1.30;;;;;;;;;;5094717;28;20066;-81
2023/07/29 00:11:25;;;;;;;4.32;1.52;;;;;;;;;;5095564;28;20028;-81
2023/07/29 00:13:50;;;;;;;1.80;1.20;;;;;;;;;;5095817;28;20467;-81
2023/07/29 00:16:17;;;;;;;1.33;1.13;;;;;;;;;;5093226;28;20051;-81
2023/07/29 00:18:43;;;;;;;2.50;1.10;;;;;;;;;;5094501;28;20073;-81
2023/07/29 00:21:08;;;;;;;1.00;1.00;;;;;;;;;;5094782;28;20036;-81
2023/07/29 00:23:34;;;;;;;1.83;1.23;;;;;;;;;;5094336;28;20076;-81
2023/07/29 00:25:59;;;;;;;1.00;1.00;;;;;;;;;;5094206;28;20126;-81
2023/07/29 00:28:24;;;;;;;2.30;1.10;;;;;;;;;;5095180;28;20032;-81
2023/07/29 00:30:50;;;;;;;1.25;1.15;;;;;;;;;;5095476;28;20456;-81
2023/07/29 00:33:15;;;;;;;1.05;1.00;;;;;;;;;;5094216;28;20024;-81
2023/07/29 00:35:41;;;;;;;1.60;1.20;;;;;;;;;;5076951;28;20028;-81
2023/07/29 00:38:06;;;;;;;1.52;1.30;;;;;;;;;;5095018;28;20059;-80
2023/07/29 00:40:35;;;;;;;1.27;1.10;;;;;;;;;;5095055;28;20115;-80
2023/07/29 00:43:00;;;;;;;2.55;1.00;;;;;;;;;;5093947;28;20066;-81
2023/07/29 00:45:27;;;;;;;1.48;1.17;;;;;;;;;;5094884;28;20044;-81
2023/07/29 00:47:52;;;;;;;1.05;1.00;;;;;;;;;;5093931;28;20471;-81
2023/07/29 00:50:18;;;;;;;1.10;1.00;;;;;;;;;;5093591;28;20046;-81
2023/07/29 00:52:43;;;;;;;0.98;0.98;;;;;;;;;;5093592;28;20407;-81
2023/07/29 00:55:09;;;;;;;1.42;1.05;;;;;;;;;;5093782;28;20036;-81
2023/07/29 00:57:35;;;;;;;1.85;0.98;;;;;;;;;;5093442;28;20027;-82
2023/07/29 01:00:01;;;;;;;1.67;1.00;;;;;;;;;;5094575;28;20028;-81
2023/07/29 01:02:27;;;;;;;1.13;1.02;;;;;;;;;;5095037;28;20023;-81
2023/07/29 01:05:01;;;;;;;1.65;1.10;;;;;;;;;;5076331;28;20069;-81
2023/07/29 01:07:29;;;;;;;1.00;0.90;;;;;;;;;;5094511;28;20035;-82
2023/07/29 01:10:00;;;;;;;1.10;1.00;;;;;;;;;;5094714;28;20105;-81
2023/07/29 01:12:35;;;;;;;0.80;0.80;;;;;;;;;;5094395;28;20031;-81
2023/07/29 01:15:07;;;;;;;0.90;0.80;;;;;;;;;;5076118;28;20482;-81
2023/07/29 01:17:51;;;;;;;3.13;1.17;;;;;;;;;;5094090;28;20119;-81
2023/07/29 01:20:17;;;;;;;1.08;0.98;;;;;;;;;;5094574;28;20046;-81
2023/07/29 01:22:43;;;;;;;0.80;0.80;;;;;;;;;;5093216;28;20382;-80
2023/07/29 01:25:08;;;;;;;0.70;0.70;;;;;;;;;;5093044;28;20028;-82
2023/07/29 01:27:34;;;;;;;1.33;0.88;;;;;;;;;;5094109;28;20024;-82
2023/07/29 01:30:00;;;;;;;0.98;0.98;;;;;;;;;;5094429;28;20024;-80
2023/07/29 01:32:25;;;;;;;1.08;0.90;;;;;;;;;;5094169;28;20027;-82
2023/07/29 01:35:03;;;;;;;6.68;2.38;;;;;;;;;;5094293;28;20031;-81
2023/07/29 01:37:32;;;;;;;5.20;2.20;;;;;;;;;;5092817;28;20398;-82
2023/07/29 01:39:59;;;;;;;13.48;4.03;;;;;;;;;;5092646;28;20082;-83
2023/07/29 01:42:24;;;;;;;21.33;5.22;;;;;;;;;;5092691;28;20067;-87
2023/07/29 01:44:50;;;;;;;23.58;7.20;;;;;;;;;;5092953;28;20455;-82
2023/07/29 01:47:16;;;;;;;17.42;5.30;;;;;;;;;;5094065;28;20036;-83
2023/07/29 01:49:41;;;;;;;20.67;5.75;;;;;;;;;;5092512;28;20031;-81
2023/07/29 01:52:07;;;;;;;16.52;4.72;;;;;;;;;;5093844;28;20036;-81
2023/07/29 01:54:32;;;;;;;21.27;5.40;;;;;;;;;;5093966;28;20479;-81
2023/07/29 01:56:57;;;;;;;14.77;5.30;;;;;;;;;;5093694;28;20072;-82
2023/07/29 01:59:23;;;;;;;18.08;5.68;;;;;;;;;;5094180;28;20080;-80
2023/07/29 02:01:48;;;;;;;15.68;5.80;;;;;;;;;;5075415;28;20032;-80
2023/07/29 02:04:14;;;;;;;11.93;4.22;;;;;;;;;;5093464;28;20035;-80
2023/07/29 02:06:39;;;;;;;18.60;4.65;;;;;;;;;;5092596;28;20421;-80
2023/07/29 02:09:05;;;;;;;13.90;4.53;;;;;;;;;;5092326;28;20032;-80
2023/07/29 02:11:30;;;;;;;11.85;4.45;;;;;;;;;;5092491;28;20024;-80
2023/07/29 02:13:56;;;;;;;18.77;5.68;;;;;;;;;;5092271;28;20107;-80
2023/07/29 02:16:22;;;;;;;9.88;3.97;;;;;;;;;;5092026;28;20060;-80
2023/07/29 02:18:49;;;;;;;12.48;4.28;;;;;;;;;;5093967;28;20024;-80
2023/07/29 02:21:14;;;;;;;12.43;4.57;;;;;;;;;;5093765;28;20421;-80
2023/07/29 02:23:40;;;;;;;13.85;4.20;;;;;;;;;;5093812;28;20020;-80
2023/07/29 02:26:06;;;;;;;8.30;3.97;;;;;;;;;;5092442;28;20375;-80
2023/07/29 02:28:31;;;;;;;14.20;4.80;;;;;;;;;;5075261;28;20028;-80
2023/07/29 02:31:14;;;;;;;8.48;3.30;;;;;;;;;;5093278;28;20115;-81
2023/07/29 02:33:39;;;;;;;13.90;3.63;;;;;;;;;;5109143;28;20024;-81
2023/07/29 02:36:05;;;;;;;12.10;3.35;;;;;;;;;;5093472;28;20035;-80
2023/07/29 02:38:30;;;;;;;7.90;3.13;;;;;;;;;;5092299;28;20028;-80
2023/07/29 02:40:55;;;;;;;10.30;3.08;;;;;;;;;;5095058;28;20072;-80
2023/07/29 02:43:21;;;;;;;6.82;2.78;;;;;;;;;;5097501;28;20378;-80
2023/07/29 02:45:46;;;;;;;4.80;2.60;;;;;;;;;;5097265;28;20138;-80
2023/07/29 02:48:11;;;;;;;7.97;3.58;;;;;;;;;;5097197;28;20036;-80
2023/07/29 02:50:37;;;;;;;5.97;2.70;;;;;;;;;;5097831;28;20036;-80
2023/07/29 02:53:03;;;;;;;5.80;2.47;;;;;;;;;;5095931;28;20483;-80
2023/07/29 02:55:28;;;;;;;5.10;2.15;;;;;;;;;;5097490;28;20031;-80
2023/07/29 02:57:53;;;;;;;5.07;2.38;;;;;;;;;;5095735;28;20436;-80
2023/07/29 03:00:19;;;;;;;5.55;2.42;;;;;;;;;;5097246;28;20035;-80
2023/07/29 03:02:44;;;;;;;5.47;2.63;;;;;;;;;;5095973;28;20479;-80
2023/07/29 03:05:10;;;;;;;7.43;2.50;;;;;;;;;;5096861;28;20028;-80
2023/07/29 03:07:35;;;;;;;8.45;1.90;;;;;;;;;;5095967;28;20442;-80
2023/07/29 03:10:00;;;;;;;3.28;1.90;;;;;;;;;;5096817;28;20024;-80
2023/07/29 03:12:26;;;;;;;4.68;2.03;;;;;;;;;;5095565;28;20028;-80
2023/07/29 03:14:51;;;;;;;3.83;2.05;;;;;;;;;;5095691;28;20106;-80
2023/07/29 03:17:17;;;;;;;4.97;2.10;;;;;;;;;;5096671;28;20517;-80
2023/07/29 03:19:42;;;;;;;3.45;1.70;;;;;;;;;;5096804;28;20024;-80
2023/07/29 03:22:07;;;;;;;4.90;1.85;;;;;;;;;;5096882;28;20032;-80
2023/07/29 03:24:33;;;;;;;3.03;1.60;;;;;;;;;;5096773;28;20085;-80
2023/07/29 03:26:58;;;;;;;3.67;1.67;;;;;;;;;;5096664;28;20051;-80
2023/07/29 03:29:23;;;;;;;3.28;1.58;;;;;;;;;;5097002;28;20115;-80
2023/07/29 03:31:49;;;;;;;2.80;1.67;;;;;;;;;;5096647;28;20024;-79
2023/07/29 03:34:14;;;;;;;5.40;1.92;;;;;;;;;;5096580;28;20142;-81
2023/07/29 03:36:40;;;;;;;3.13;1.70;;;;;;;;;;5096581;28;20043;-81
2023/07/29 03:39:07;;;;;;;3.13;1.50;;;;;;;;;;5096492;28;20039;-80
2023/07/29 03:41:33;;;;;;;3.42;1.50;;;;;;;;;;5096243;28;20034;-80
2023/07/29 03:43:58;;;;;;;4.53;1.40;;;;;;;;;;5096313;28;20453;-80
2023/07/29 03:46:24;;;;;;;2.72;1.40;;;;;;;;;;5096341;28;20073;-80
2023/07/29 03:48:49;;;;;;;2.97;1.27;;;;;;;;;;5094841;28;20028;-80
2023/07/29 03:51:15;;;;;;;4.70;1.48;;;;;;;;;;5095102;28;20101;-80
2023/07/29 03:53:40;;;;;;;2.75;1.38;;;;;;;;;;5094786;28;20027;-80
2023/07/29 03:56:06;;;;;;;2.08;1.20;;;;;;;;;;5096374;28;20439;-80
2023/07/29 03:58:31;;;;;;;3.03;1.63;;;;;;;;;;5094657;28;20032;-80
2023/07/29 04:00:56;;;;;;;2.47;1.33;;;;;;;;;;5095789;28;20031;-80
2023/07/29 04:03:22;;;;;;;2.97;1.25;;;;;;;;;;5094788;28;20494;-80
2023/07/29 04:05:47;;;;;;;1.27;1.10;;;;;;;;;;5096181;28;20042;-80
2023/07/29 04:08:12;;;;;;;1.10;1.00;;;;;;;;;;5096017;28;20024;-80
2023/07/29 04:10:38;;;;;;;2.10;1.25;;;;;;;;;;5094658;28;20458;-80
2023/07/29 04:13:03;;;;;;;1.48;0.98;;;;;;;;;;5077463;28;20028;-80
2023/07/29 04:15:29;;;;;;;1.35;1.10;;;;;;;;;;5077419;28;20046;-80
2023/07/29 04:17:55;;;;;;;2.22;1.15;;;;;;;;;;5094218;28;20052;-80
2023/07/29 04:20:20;;;;;;;2.28;1.35;;;;;;;;;;5095579;28;20028;-80
2023/07/29 04:22:46;;;;;;;1.92;1.13;;;;;;;;;;5095550;28;20424;-80
2023/07/29 04:25:12;;;;;;;1.98;1.20;;;;;;;;;;5095338;28;20046;-80
2023/07/29 04:27:38;;;;;;;2.08;1.00;;;;;;;;;;5095326;28;20039;-81
2023/07/29 04:30:04;;;;;;;1.80;1.27;;;;;;;;;;5094373;28;20028;-81
2023/07/29 04:32:29;;;;;;;1.60;1.15;;;;;;;;;;5094134;28;20485;-80
2023/07/29 04:34:54;;;;;;;2.22;1.17;;;;;;;;;;5093906;28;20024;-81
2023/07/29 04:37:20;;;;;;;1.65;1.20;;;;;;;;;;5095073;28;20110;-80
2023/07/29 04:39:46;;;;;;;2.88;1.20;;;;;;;;;;5095033;28;20437;-80
2023/07/29 04:42:11;;;;;;;1.25;1.08;;;;;;;;;;5093830;28;20471;-81
2023/07/29 04:44:37;;;;;;;5.82;1.30;;;;;;;;;;5095195;28;20034;-81
2023/07/29 04:47:02;;;;;;;1.40;1.05;;;;;;;;;;5095227;28;20032;-80
2023/07/29 04:49:28;;;;;;;3.35;1.23;;;;;;;;;;5095061;28;20071;-80
2023/07/29 04:51:53;;;;;;;1.80;1.20;;;;;;;;;;5094960;28;20082;-80
2023/07/29 04:54:20;;;;;;;1.48;1.00;;;;;;;;;;5094053;28;20463;-81
2023/07/29 04:56:46;;;;;;;0.90;0.90;;;;;;;;;;5076942;28;20028;-80
2023/07/29 04:59:12;;;;;;;1.38;1.10;;;;;;;;;;5093562;28;20028;-80
2023/07/29 05:01:38;;;;;;;1.45;0.90;;;;;;;;;;5093545;28;20028;-80
2023/07/29 05:04:03;;;;;;;1.77;1.13;;;;;;;;;;5094601;28;20032;-80
2023/07/29 05:06:29;;;;;;;1.23;1.00;;;;;;;;;;5094685;28;20040;-80
2023/07/29 05:08:56;;;;;;;1.65;1.05;;;;;;;;;;5094952;28;20027;-80
2023/07/29 05:11:22;;;;;;;2.95;0.98;;;;;;;;;;5094896;28;20036;-80
2023/07/29 05:13:47;;;;;;;1.10;0.82;;;;;;;;;;5095133;28;20035;-80
2023/07/29 05:16:12;;;;;;;2.42;0.90;;;;;;;;;;5094367;28;20115;-80
2023/07/29 05:18:38;;;;;;;0.70;0.70;;;;;;;;;;5094484;28;20035;-80
2023/07/29 05:21:03;;;;;;;1.00;0.90;;;;;;;;;;5094812;28;20086;-81
2023/07/29 05:23:28;;;;;;;1.42;1.08;;;;;;;;;;5094603;28;20029;-81
2023/07/29 05:25:54;;;;;;;1.20;1.10;;;;;;;;;;5094383;28;20077;-80
2023/07/29 05:28:19;;;;;;;1.05;0.90;;;;;;;;;;5094321;28;20111;-80
2023/07/29 05:30:44;;;;;;;1.30;1.10;;;;;;;;;;5094280;28;20027;-80
2023/07/29 05:33:10;;;;;;;0.88;0.80;;;;;;;;;;5075994;28;20028;-80
2023/07/29 05:35:35;;;;;;;1.13;1.00;;;;;;;;;;5094469;28;20035;-80
2023/07/29 05:38:01;;;;;;;0.98;0.90;;;;;;;;;;5092922;28;20394;-79
2023/07/29 05:40:26;;;;;;;1.25;0.90;;;;;;;;;;5092975;28;20039;-80
2023/07/29 05:42:51;;;;;;;1.05;0.80;;;;;;;;;;5092700;28;20069;-80
2023/07/29 05:45:17;;;;;;;0.93;0.77;;;;;;;;;;5094002;28;20478;-80
2023/07/29 05:47:43;;;;;;;1.13;0.95;;;;;;;;;;5075828;28;20054;-80
2023/07/29 05:50:09;;;;;;;0.70;0.70;;;;;;;;;;5094141;28;20081;-80
2023/07/29 05:52:34;;;;;;;1.17;0.95;;;;;;;;;;5092702;28;20032;-80
2023/07/29 05:55:00;;;;;;;1.10;1.00;;;;;;;;;;5092686;28;20020;-80
2023/07/29 05:57:25;;;;;;;1.10;1.00;;;;;;;;;;5093772;28;20023;-80
2023/07/29 05:59:51;;;;;;;0.95;0.85;;;;;;;;;;5092642;28;20048;-80
2023/07/29 06:02:16;;;;;;;0.90;0.90;;;;;;;;;;5092562;28;20036;-79
2023/07/29 06:04:42;;;;;;;1.00;1.00;;;;;;;;;;5075511;28;20461;-80
2023/07/29 06:07:07;;;;;;;1.10;1.00;;;;;;;;;;5092831;28;20526;-80
2023/07/29 06:09:33;;;;;;;1.13;0.80;;;;;;;;;;5093038;28;20107;-80
2023/07/29 06:11:58;;;;;;;0.90;0.90;;;;;;;;;;5094186;28;20032;-80
2023/07/29 06:14:23;;;;;;;1.00;0.90;;;;;;;;;;5092870;28;20056;-81
2023/07/29 06:16:49;;;;;;;0.98;0.93;;;;;;;;;;5093370;28;20044;-80
2023/07/29 06:19:14;;;;;;;0.98;0.98;;;;;;;;;;5093451;28;20032;-80
2023/07/29 06:21:39;;;;;;;1.23;1.13;;;;;;;;;;5094112;28;20411;-80
2023/07/29 06:24:05;;;;;;;1.92;1.20;;;;;;;;;;5092095;28;20035;-80
2023/07/29 06:26:30;;;;;;;1.02;0.80;;;;;;;;;;5094029;28;20089;-80
2023/07/29 06:28:55;;;;;;;1.50;1.00;;;;;;;;;;5092246;28;20115;-79
2023/07/29 06:31:21;;;;;;;1.30;1.10;;;;;;;;;;5093674;28;20035;-80
2023/07/29 06:33:46;;;;;;;1.33;0.90;;;;;;;;;;5092540;28;20506;-80
2023/07/29 06:36:12;;;;;;;1.13;0.90;;;;;;;;;;5093402;28;20035;-79
2023/07/29 06:38:38;;;;;;;2.47;1.15;;;;;;;;;;5092460;28;20040;-79
2023/07/29 06:41:04;;;;;;;1.10;1.00;;;;;;;;;;5092088;28;20024;-80
2023/07/29 06:43:29;;;;;;;2.85;1.38;;;;;;;;;;5092080;28;20025;-80
2023/07/29 06:45:55;;;;;;;1.10;0.93;;;;;;;;;;5093606;28;20032;-81
2023/07/29 06:48:20;;;;;;;0.90;0.90;;;;;;;;;;5092079;28;20036;-81
2023/07/29 06:50:46;;;;;;;2.45;1.02;;;;;;;;;;5092621;28;20107;-79
2023/07/29 06:53:11;;;;;;;0.60;0.60;;;;;;;;;;5092097;28;20060;-81
2023/07/29 06:55:37;;;;;;;1.77;1.00;;;;;;;;;;5093610;28;20028;-79
2023/07/29 06:58:02;;;;;;;1.27;1.10;;;;;;;;;;5075154;28;20478;-79
2023/07/29 07:00:28;;;;;;;1.83;0.90;;;;;;;;;;5093152;28;20032;-79
2023/07/29 07:02:53;;;;;;;1.13;1.02;;;;;;;;;;5092151;28;20036;-80
2023/07/29 07:05:19;;;;;;;1.30;1.20;;;;;;;;;;5092191;28;20032;-79
2023/07/29 07:07:44;;;;;;;1.10;0.90;;;;;;;;;;5091870;28;20056;-80
2023/07/29 07:10:10;;;;;;;1.80;0.93;;;;;;;;;;5093335;28;20382;-79
2023/07/29 07:12:35;;;;;;;1.30;0.93;;;;;;;;;;5092177;28;20082;-80
2023/07/29 07:15:01;;;;;;;2.25;1.17;;;;;;;;;;5093288;28;20039;-80
2023/07/29 07:17:26;;;;;;;1.27;1.00;;;;;;;;;;5091640;28;20048;-79
2023/07/29 07:19:51;;;;;;;1.20;1.10;;;;;;;;;;5093421;28;20060;-80
2023/07/29 07:22:17;;;;;;;1.20;1.10;;;;;;;;;;5093005;28;20497;-79
2023/07/29 07:24:42;;;;;;;1.13;0.93;;;;;;;;;;5091663;28;20020;-79
2023/07/29 07:27:08;;;;;;;1.38;0.90;;;;;;;;;;5095070;28;20420;-80
2023/07/29 07:29:33;;;;;;;1.70;1.10;;;;;;;;;;5095458;28;20032;-80
2023/07/29 07:31:59;;;;;;;2.35;1.10;;;;;;;;;;5096821;28;20024;-80
2023/07/29 07:34:24;;;;;;;1.55;1.10;;;;;;;;;;5095243;28;20020;-80
2023/07/29 07:36:49;;;;;;;1.38;1.10;;;;;;;;;;5095203;28;20054;-80
2023/07/29 07:39:15;;;;;;;3.13;1.20;;;;;;;;;;5096649;28;20485;-80
2023/07/29 07:41:41;;;;;;;1.63;1.10;;;;;;;;;;5096327;28;20032;-79
2023/07/29 07:44:07;;;;;;;1.60;1.20;;;;;;;;;;5078100;28;20115;-79
2023/07/29 07:46:32;;;;;;;1.83;1.33;;;;;;;;;;5078054;28;20056;-80
2023/07/29 07:48:58;;;;;;;1.92;1.20;;;;;;;;;;5078029;28;20069;-80
2023/07/29 07:51:23;;;;;;;1.30;1.20;;;;;;;;;;5096749;28;20040;-80
2023/07/29 07:53:49;;;;;;;1.42;1.20;;;;;;;;;;5077850;28;20032;-80
2023/07/29 07:56:15;;;;;;;2.88;1.30;;;;;;;;;;5095035;28;20471;-80
2023/07/29 07:58:40;;;;;;;2.20;1.52;;;;;;;;;;5094727;28;20483;-80
2023/07/29 08:01:07;;;;;;;1.33;1.23;;;;;;;;;;5095993;28;20036;-80
2023/07/29 08:03:32;;;;;;;1.40;1.30;;;;;;;;;;5094895;28;20024;-80
2023/07/29 08:05:58;;;;;;;1.38;1.20;;;;;;;;;;5095283;28;20386;-80
2023/07/29 08:08:23;;;;;;;1.70;1.42;;;;;;;;;;5095838;28;20047;-80
2023/07/29 08:10:49;;;;;;;2.78;1.65;;;;;;;;;;5095997;28;20066;-80
2023/07/29 08:13:14;;;;;;;2.13;1.33;;;;;;;;;;5094784;28;20020;-80
2023/07/29 08:15:41;;;;;;;2.28;1.40;;;;;;;;;;5094838;28;20032;-80
2023/07/29 08:18:06;;;;;;;1.42;1.20;;;;;;;;;;5095384;28;20047;-80
2023/07/29 08:20:32;;;;;;;1.52;1.42;;;;;;;;;;5095766;28;20036;-80
2023/07/29 08:22:58;;;;;;;1.95;1.50;;;;;;;;;;5095723;28;20031;-80
2023/07/29 08:25:23;;;;;;;1.45;1.30;;;;;;;;;;5095801;28;20031;-80
2023/07/29 08:27:48;;;;;;;1.92;1.60;;;;;;;;;;5095398;28;20024;-79
2023/07/29 08:30:15;;;;;;;1.65;1.45;;;;;;;;;;5094557;28;20081;-79
2023/07/29 08:32:41;;;;;;;1.33;1.30;;;;;;;;;;5095339;28;20024;-79
2023/07/29 08:35:07;;;;;;;2.03;1.33;;;;;;;;;;5095862;28;20024;-80
2023/07/29 08:37:32;;;;;;;1.35;1.25;;;;;;;;;;5095109;28;20032;-80
2023/07/29 08:39:57;;;;;;;2.20;1.40;;;;;;;;;;5094192;28;20548;-80
2023/07/29 08:42:23;;;;;;;1.30;1.20;;;;;;;;;;5094304;28;20028;-80
2023/07/29 08:44:49;;;;;;;2.08;1.40;;;;;;;;;;5076953;28;20443;-79
2023/07/29 08:47:15;;;;;;;1.40;1.30;;;;;;;;;;5093907;28;20020;-80
2023/07/29 08:49:41;;;;;;;2.03;1.52;;;;;;;;;;5094065;28;20032;-81
2023/07/29 08:52:06;;;;;;;1.80;1.20;;;;;;;;;;5093849;28;20485;-80
2023/07/29 08:54:32;;;;;;;1.60;1.20;;;;;;;;;;5095299;28;20027;-80
2023/07/29 08:56:58;;;;;;;1.55;1.38;;;;;;;;;;5095026;28;20047;-80
2023/07/29 08:59:23;;;;;;;1.30;1.20;;;;;;;;;;5093675;28;20059;-80
2023/07/29 09:01:49;;;;;;;1.60;1.40;;;;;;;;;;5093669;28;20101;-80
2023/07/29 09:04:15;;;;;;;3.03;1.50;;;;;;;;;;5094950;28;20028;-80
2023/07/29 09:06:43;;;;;;;1.50;1.40;;;;;;;;;;5094062;28;20040;-80
2023/07/29 09:09:09;;;;;;;1.55;1.45;;;;;;;;;;5076507;28;20055;-80
2023/07/29 09:11:34;;;;;;;1.30;1.20;;;;;;;;;;5093478;28;20097;-80
2023/07/29 09:14:00;;;;;;;1.45;1.30;;;;;;;;;;5095181;28;20069;-80
2023/07/29 09:16:26;;;;;;;1.77;1.42;;;;;;;;;;5094601;28;20035;-80
2023/07/29 09:18:52;;;;;;;1.40;1.30;;;;;;;;;;5094339;28;20453;-80
2023/07/29 09:21:18;;;;;;;2.78;1.45;;;;;;;;;;5094949;28;20146;-80
2023/07/29 09:23:44;;;;;;;1.30;1.20;;;;;;;;;;5093599;28;20038;-80
2023/07/29 09:26:10;;;;;;;1.30;1.20;;;;;;;;;;5076151;28;20070;-80
2023/07/29 09:28:37;;;;;;;1.48;1.27;;;;;;;;;;5093132;28;20055;-80
2023/07/29 09:31:03;;;;;;;1.40;1.30;;;;;;;;;;5076172;28;20016;-80
2023/07/29 09:33:31;;;;;;;1.27;1.17;;;;;;;;;;5093031;28;20100;-80
2023/07/29 09:35:56;;;;;;;1.30;1.20;;;;;;;;;;5094169;28;20024;-80
2023/07/29 09:38:27;;;;;;;1.40;1.30;;;;;;;;;;5092972;28;20028;-81
2023/07/29 09:40:55;;;;;;;1.40;1.30;;;;;;;;;;5075797;28;20020;-80
2023/07/29 09:43:25;;;;;;;1.42;1.33;;;;;;;;;;5092794;28;20067;-80
2023/07/29 09:45:52;;;;;;;1.33;1.23;;;;;;;;;;5094234;28;20154;-81
2023/07/29 09:48:19;;;;;;;1.58;1.30;;;;;;;;;;5092699;28;20024;-80
2023/07/29 09:50:47;;;;;;;1.50;1.10;;;;;;;;;;5092067;28;20039;-80
2023/07/29 09:53:12;;;;;;;2.00;1.42;;;;;;;;;;5092981;28;20032;-80
2023/07/29 09:55:37;;;;;;;1.50;1.20;;;;;;;;;;5092633;28;20123;-79
2023/07/29 09:58:07;;;;;;;1.20;1.10;;;;;;;;;;5094123;28;20039;-80
2023/07/29 10:00:33;;;;;;;1.42;1.33;;;;;;;;;;5094164;28;20471;-80
2023/07/29 10:02:59;;;;;;;1.77;1.35;;;;;;;;;;5075491;28;20118;-81
2023/07/29 10:05:28;;;;;;;1.52;1.23;;;;;;;;;;5092543;28;20028;-80
2023/07/29 10:07:54;;;;;;;2.03;1.20;;;;;;;;;;5092532;28;20028;-80
2023/07/29 10:10:20;;;;;;;1.98;1.30;;;;;;;;;;5093928;28;20111;-80
2023/07/29 10:12:46;;;;;;;2.90;1.38;;;;;;;;;;5092465;28;20052;-80
2023/07/29 10:15:11;;;;;;;1.88;1.42;;;;;;;;;;5093824;28;20382;-80
2023/07/29 10:17:38;;;;;;;1.40;1.30;;;;;;;;;;5092225;28;20521;-80
2023/07/29 10:20:08;;;;;;;1.42;1.33;;;;;;;;;;5092734;28;20036;-80
2023/07/29 10:22:46;;;;;;;2.42;1.45;;;;;;;;;;5092305;28;20110;-80
2023/07/29 10:25:19;;;;;;;1.70;1.50;;;;;;;;;;5092329;28;20032;-81
2023/07/29 10:27:47;;;;;;;2.20;1.60;;;;;;;;;;5092345;28;20019;-80
2023/07/29 10:30:13;;;;;;;2.25;1.40;;;;;;;;;;5093462;28;20024;-80
2023/07/29 10:32:45;;;;;;;1.40;1.30;;;;;;;;;;5092136;28;20145;-81
2023/07/29 10:35:14;;;;;;;1.58;1.40;;;;;;;;;;5093439;28;20131;-81
2023/07/29 10:37:41;;;;;;;1.55;1.20;;;;;;;;;;5092227;28;20430;-81
2023/07/29 10:40:11;;;;;;;1.40;1.30;;;;;;;;;;5092147;28;20024;-81
2023/07/29 10:42:37;;;;;;;2.55;1.40;;;;;;;;;;5092085;28;20085;-81
2023/07/29 10:45:20;;;;;;;1.83;1.42;;;;;;;;;;5075463;28;20028;-81
2023/07/29 10:47:46;;;;;;;1.23;1.13;;;;;;;;;;5093519;28;20024;-81
2023/07/29 10:50:21;;;;;;;1.40;1.30;;;;;;;;;;5093561;28;20539;-80
2023/07/29 10:52:51;;;;;;;3.78;1.30;;;;;;;;;;5092071;28;20416;-81
2023/07/29 10:55:27;;;;;;;1.30;1.20;;;;;;;;;;5093205;28;20031;-81
2023/07/29 10:57:52;;;;;;;1.27;1.17;;;;;;;;;;5092317;28;20493;-80
2023/07/29 11:00:20;;;;;;;1.38;1.27;;;;;;;;;;5092572;28;20028;-81
2023/07/29 11:03:00;;;;;;;4.80;1.52;;;;;;;;;;5097313;28;20032;-81
2023/07/29 11:05:25;;;;;;;1.67;1.40;;;;;;;;;;5095901;28;20125;-81
2023/07/29 11:07:50;;;;;;;2.28;1.40;;;;;;;;;;5096355;28;20066;-81
2023/07/29 11:10:16;;;;;;;2.35;1.48;;;;;;;;;;5097522;28;20036;-81
2023/07/29 11:12:52;;;;;;;1.40;1.30;;;;;;;;;;5095625;28;20039;-81
2023/07/29 11:15:26;;;;;;;1.77;1.40;;;;;;;;;;5095910;28;20023;-81
2023/07/29 11:18:01;;;;;;;1.65;1.30;;;;;;;;;;5095654;28;20044;-81
2023/07/29 11:20:31;;;;;;;2.13;1.30;;;;;;;;;;5097073;28;20032;-80
2023/07/29 11:22:59;;;;;;;1.33;1.23;;;;;;;;;;5096933;28;20051;-81
2023/07/29 11:25:26;;;;;;;1.13;1.10;;;;;;;;;;5078550;28;20032;-81
2023/07/29 11:27:54;;;;;;;1.48;1.30;;;;;;;;;;5078540;28;20028;-81
2023/07/29 11:30:20;;;;;;;1.10;1.08;;;;;;;;;;5095387;28;20032;-80
2023/07/29 11:32:46;;;;;;;1.55;1.30;;;;;;;;;;5095676;28;20459;-81
2023/07/29 11:35:14;;;;;;;1.38;1.27;;;;;;;;;;5095643;28;20382;-80
2023/07/29 11:37:40;;;;;;;1.83;1.40;;;;;;;;;;5095605;28;20033;-80
2023/07/29 11:40:07;;;;;;;2.47;1.58;;;;;;;;;;5095409;28;20530;-80
2023/07/29 11:42:34;;;;;;;1.40;1.30;;;;;;;;;;5095225;28;20024;-80
2023/07/29 11:44:59;;;;;;;1.33;1.20;;;;;;;;;;5095139;28;20044;-80
2023/07/29 11:47:26;;;;;;;1.50;1.40;;;;;;;;;;5112024;28;20039;-80
2023/07/29 11:49:51;;;;;;;1.20;1.10;;;;;;;;;;5096463;28;20111;-81
2023/07/29 11:52:19;;;;;;;1.33;1.10;;;;;;;;;;5095252;28;20067;-80
2023/07/29 11:54:45;;;;;;;1.20;1.10;;;;;;;;;;5095273;28;20073;-80
2023/07/29 11:57:11;;;;;;;1.20;1.10;;;;;;;;;;5095138;28;20080;-80
2023/07/29 11:59:37;;;;;;;1.50;1.00;;;;;;;;;;5094801;28;20024;-81
2023/07/29 12:02:13;;;;;;;2.67;1.10;;;;;;;;;;5077805;28;20028;-80
2023/07/29 12:04:39;;;;;;;1.35;1.25;;;;;;;;;;5094768;28;20069;-80
2023/07/29 12:07:05;;;;;;;0.98;0.98;;;;;;;;;;5094760;28;20432;-80
2023/07/29 12:09:31;;;;;;;1.50;1.10;;;;;;;;;;5094940;28;20035;-81
2023/07/29 12:11:56;;;;;;;1.02;1.02;;;;;;;;;;5095533;28;20407;-81
2023/07/29 12:14:22;;;;;;;0.88;0.88;;;;;;;;;;5094908;28;20047;-81
2023/07/29 12:16:48;;;;;;;0.90;0.90;;;;;;;;;;5095608;28;20390;-81
2023/07/29 12:19:14;;;;;;;2.05;1.05;;;;;;;;;;5094948;28;20108;-81
2023/07/29 12:21:41;;;;;;;0.98;0.90;;;;;;;;;;5096172;28;20063;-81
2023/07/29 12:24:07;;;;;;;0.90;0.90;;;;;;;;;;5095822;28;20024;-81
2023/07/29 12:26:33;;;;;;;0.80;0.80;;;;;;;;;;5094696;28;20035;-80
2023/07/29 12:28:58;;;;;;;1.08;1.00;;;;;;;;;;5094195;28;20436;-81
2023/07/29 12:31:33;;;;;;;0.80;0.80;;;;;;;;;;5094258;28;20024;-81
2023/07/29 12:33:58;;;;;;;1.58;0.80;;;;;;;;;;5094753;28;20455;-81
2023/07/29 12:36:44;;;;;;;1.20;1.00;;;;;;;;;;5094334;28;20031;-80
2023/07/29 12:39:27;;;;;;;1.05;0.80;;;;;;;;;;5093793;28;20036;-80
2023/07/29 12:41:55;;;;;;;0.90;0.90;;;;;;;;;;5094359;28;20036;-80
2023/07/29 12:44:22;;;;;;;1.20;1.05;;;;;;;;;;5094423;28;20027;-81
2023/07/29 12:46:48;;;;;;;0.82;0.82;;;;;;;;;;5093751;28;20081;-81
2023/07/29 12:49:13;;;;;;;2.15;0.90;;;;;;;;;;5093652;28;20441;-81
2023/07/29 12:51:39;;;;;;;1.05;1.00;;;;;;;;;;5095004;28;20032;-80
2023/07/29 12:54:04;;;;;;;0.85;0.85;;;;;;;;;;5095315;28;20023;-81
2023/07/29 12:56:31;;;;;;;2.78;1.00;;;;;;;;;;5095138;28;20039;-81
2023/07/29 12:58:58;;;;;;;1.15;0.80;;;;;;;;;;5076798;28;20123;-81
2023/07/29 13:01:23;;;;;;;1.95;1.10;;;;;;;;;;5076918;28;20059;-80
2023/07/29 13:03:48;;;;;;;0.98;0.82;;;;;;;;;;5093550;28;20059;-80
2023/07/29 13:06:15;;;;;;;0.85;0.85;;;;;;;;;;5093890;28;20085;-80
2023/07/29 13:08:40;;;;;;;0.95;0.90;;;;;;;;;;5076726;28;20032;-80
2023/07/29 13:11:06;;;;;;;0.70;0.70;;;;;;;;;;5095255;28;20031;-80
2023/07/29 13:13:31;;;;;;;1.10;0.95;;;;;;;;;;5076481;28;20032;-80
2023/07/29 13:15:57;;;;;;;1.02;0.90;;;;;;;;;;5093565;28;20087;-80
2023/07/29 13:18:22;;;;;;;0.77;0.77;;;;;;;;;;5093297;28;20048;-81
2023/07/29 13:20:48;;;;;;;0.90;0.90;;;;;;;;;;5093477;28;20027;-79
2023/07/29 13:23:13;;;;;;;1.20;1.10;;;;;;;;;;5093526;28;20031;-80
2023/07/29 13:25:39;;;;;;;0.80;0.80;;;;;;;;;;5094709;28;20028;-80
2023/07/29 13:28:04;;;;;;;0.90;0.80;;;;;;;;;;5094511;28;20028;-80
2023/07/29 13:30:30;;;;;;;1.42;0.85;;;;;;;;;;5093157;28;20132;-81
2023/07/29 13:32:56;;;;;;;1.00;0.93;;;;;;;;;;5093020;28;20030;-80
2023/07/29 13:35:21;;;;;;;1.52;0.77;;;;;;;;;;5093334;28;20036;-81
2023/07/29 13:37:47;;;;;;;0.93;0.90;;;;;;;;;;5093482;28;20352;-80
2023/07/29 13:40:12;;;;;;;0.90;0.90;;;;;;;;;;5092809;28;20028;-79
2023/07/29 13:42:37;;;;;;;0.80;0.80;;;;;;;;;;5109722;28;20092;-80
2023/07/29 13:45:03;;;;;;;1.00;0.70;;;;;;;;;;5093041;28;20047;-80
2023/07/29 13:47:29;;;;;;;0.80;0.80;;;;;;;;;;5094536;28;20459;-80
2023/07/29 13:49:54;;;;;;;2.15;0.98;;;;;;;;;;5092606;28;20063;-80
2023/07/29 13:52:19;;;;;;;0.88;0.88;;;;;;;;;;5094023;28;20032;-80
2023/07/29 13:54:45;;;;;;;0.93;0.82;;;;;;;;;;5093954;28;20072;-80
2023/07/29 13:57:10;;;;;;;1.05;0.90;;;;;;;;;;5094059;28;20439;-81
2023/07/29 13:59:38;;;;;;;1.00;0.90;;;;;;;;;;5093823;28;20028;-80
2023/07/29 14:02:05;;;;;;;0.80;0.80;;;;;;;;;;5094292;28;20028;-80
2023/07/29 14:04:30;;;;;;;0.73;0.73;;;;;;;;;;5093734;28;20028;-80
2023/07/29 14:06:55;;;;;;;0.90;0.90;;;;;;;;;;5094302;28;20479;-80
2023/07/29 14:09:21;;;;;;;0.70;0.70;;;;;;;;;;5092392;28;20054;-81
2023/07/29 14:11:46;;;;;;;0.70;0.70;;;;;;;;;;5093965;28;20036;-80
2023/07/29 14:14:12;;;;;;;0.80;0.80;;;;;;;;;;5092426;28;20031;-80
2023/07/29 14:16:37;;;;;;;1.35;0.90;;;;;;;;;;5092419;28;20028;-81
2023/07/29 14:19:03;;;;;;;0.80;0.80;;;;;;;;;;5093517;28;20048;-80
2023/07/29 14:21:28;;;;;;;0.95;0.70;;;;;;;;;;5092773;28;20119;-81
2023/07/29 14:23:53;;;;;;;0.70;0.70;;;;;;;;;;5092310;28;20052;-80
2023/07/29 14:26:19;;;;;;;1.10;0.88;;;;;;;;;;5093548;28;20032;-81
2023/07/29 14:28:44;;;;;;;0.90;0.90;;;;;;;;;;5093564;28;20482;-80
2023/07/29 14:31:10;;;;;;;0.80;0.80;;;;;;;;;;5092283;28;20054;-80
2023/07/29 14:33:35;;;;;;;0.80;0.80;;;;;;;;;;5092288;28;20069;-81
2023/07/29 14:36:03;;;;;;;0.82;0.82;;;;;;;;;;5094991;28;20024;-79
2023/07/29 14:38:28;;;;;;;0.88;0.88;;;;;;;;;;5097622;28;20038;-79